createdAt,value
2023-05-14T00:00:08.348Z,21.60
2023-05-14T00:01:42.068Z,20.20
2023-05-14T00:03:14.380Z,20.80
2023-05-14T00:04:46.322Z,22.10
2023-05-14T00:06:18.002Z,20.30
2023-05-14T00:07:49.665Z,21.50
2023-05-14T00:09:21.398Z,21.50
2023-05-14T00:10:53.096Z,23.20
2023-05-14T00:12:26.331Z,20.00
2023-05-14T00:13:58.016Z,19.90
2023-05-14T00:15:30.054Z,20.50
2023-05-14T00:17:03.014Z,19.90
2023-05-14T00:18:34.886Z,17.80
2023-05-14T00:20:07.276Z,20.10
2023-05-14T00:21:39.024Z,21.20
2023-05-14T00:23:10.966Z,21.60
2023-05-14T00:24:42.656Z,22.20
2023-05-14T00:26:14.410Z,20.20
2023-05-14T00:27:47.094Z,21.60
2023-05-14T00:29:18.999Z,22.90
2023-05-14T00:30:51.922Z,21.70
2023-05-14T00:32:24.489Z,21.80
2023-05-14T00:33:56.588Z,22.80
2023-05-14T00:35:28.298Z,23.40
2023-05-14T00:36:59.998Z,23.10
2023-05-14T00:38:32.044Z,25.60
2023-05-14T00:40:04.440Z,22.00
2023-05-14T00:41:36.258Z,20.60
2023-05-14T00:43:08.413Z,22.30
2023-05-14T00:44:40.272Z,22.30
2023-05-14T00:46:12.702Z,21.80
2023-05-14T00:47:44.781Z,23.10
2023-05-14T00:49:17.680Z,22.10
2023-05-14T00:50:51.047Z,20.20
2023-05-14T00:52:22.915Z,23.30
2023-05-14T00:53:55.273Z,20.90
2023-05-14T00:55:30.774Z,21.20
2023-05-14T00:57:04.693Z,22.30
2023-05-14T00:58:36.507Z,26.20
2023-05-14T01:00:09.352Z,23.40
2023-05-14T01:01:41.235Z,20.20
2023-05-14T01:03:13.034Z,19.40
2023-05-14T01:04:44.941Z,20.60
2023-05-14T01:06:53.279Z,21.90
2023-05-14T01:08:50.006Z,21.10
2023-05-14T01:10:35.729Z,21.90
2023-05-14T01:12:29.563Z,21.30
2023-05-14T01:14:45.243Z,20.30
2023-05-14T01:16:19.956Z,18.20
2023-05-14T01:17:59.893Z,21.50
2023-05-14T01:19:45.541Z,20.20
2023-05-14T01:21:38.566Z,21.10
2023-05-14T01:23:22.921Z,22.20
2023-05-14T01:24:54.626Z,21.90
2023-05-14T01:38:46.357Z,23.20
2023-05-14T01:40:19.372Z,21.60
2023-05-14T01:41:52.703Z,19.70
2023-05-14T01:43:24.713Z,21.40
2023-05-14T01:44:56.751Z,22.50
2023-05-14T01:46:33.430Z,19.90
2023-05-14T01:48:06.622Z,20.20
2023-05-14T01:49:38.970Z,19.90
2023-05-14T01:51:10.853Z,24.90
2023-05-14T01:52:45.432Z,21.30
2023-05-14T01:54:17.527Z,24.10
2023-05-14T01:55:49.240Z,21.30
2023-05-14T01:57:21.446Z,22.60
2023-05-14T01:58:53.304Z,22.80
2023-05-14T02:00:26.178Z,23.50
2023-05-14T02:01:58.287Z,23.50
2023-05-14T02:03:30.084Z,23.70
2023-05-14T02:05:02.683Z,23.00
2023-05-14T02:06:35.345Z,21.70
2023-05-14T02:08:07.087Z,25.30
2023-05-14T02:09:40.080Z,20.90
2023-05-14T02:11:11.776Z,23.30
2023-05-14T02:12:44.023Z,24.90
2023-05-14T02:14:15.852Z,23.30
2023-05-14T02:15:47.788Z,24.50
2023-05-14T02:17:19.977Z,23.30
2023-05-14T02:18:51.752Z,24.40
2023-05-14T02:20:24.165Z,21.30
2023-05-14T02:21:56.286Z,21.60
2023-05-14T02:23:37.967Z,23.30
2023-05-14T02:25:15.904Z,25.90
2023-05-14T02:26:48.733Z,24.00
2023-05-14T02:28:20.655Z,23.30
2023-05-14T02:29:52.832Z,23.80
2023-05-14T02:31:24.615Z,22.90
2023-05-14T02:32:57.407Z,23.10
2023-05-14T02:34:29.422Z,22.90
2023-05-14T02:36:01.192Z,25.30
2023-05-14T02:37:34.788Z,21.40
2023-05-14T02:39:06.729Z,22.50
2023-05-14T02:40:38.414Z,25.40
2023-05-14T02:42:10.130Z,25.60
2023-05-14T02:43:41.817Z,23.10
2023-05-14T02:45:13.554Z,26.60
2023-05-14T02:46:45.594Z,23.60
2023-05-14T02:48:17.464Z,28.00
2023-05-14T02:49:49.225Z,24.30
2023-05-14T02:51:21.371Z,23.10
2023-05-14T02:52:53.131Z,23.70
2023-05-14T02:54:25.020Z,25.60
2023-05-14T02:55:56.774Z,24.80
2023-05-14T02:57:29.058Z,27.90
2023-05-14T02:59:00.967Z,25.30
2023-05-14T03:00:33.291Z,24.60
2023-05-14T03:02:05.729Z,25.00
2023-05-14T03:03:38.345Z,25.00
2023-05-14T03:05:10.834Z,27.10
2023-05-14T03:06:42.630Z,24.30
2023-05-14T03:08:14.416Z,27.00
2023-05-14T03:09:46.252Z,25.70
2023-05-14T03:11:18.273Z,30.20
2023-05-14T03:12:50.338Z,28.70
2023-05-14T03:14:22.098Z,29.20
2023-05-14T03:15:57.024Z,26.90
2023-05-14T03:17:28.870Z,25.70
2023-05-14T03:19:01.608Z,27.30
2023-05-14T03:20:34.349Z,27.50
2023-05-14T03:22:06.106Z,24.60
2023-05-14T03:23:37.896Z,25.30
2023-05-14T03:25:09.937Z,25.70
2023-05-14T03:26:41.654Z,27.60
2023-05-14T03:28:13.521Z,28.30
2023-05-14T03:29:45.417Z,26.70
2023-05-14T03:31:17.262Z,24.80
2023-05-14T03:32:50.135Z,22.60
2023-05-14T03:34:22.163Z,22.50
2023-05-14T03:35:53.832Z,23.40
2023-05-14T03:37:26.203Z,25.40
2023-05-14T03:38:57.892Z,24.80
2023-05-14T03:40:29.589Z,24.20
2023-05-14T03:42:01.374Z,23.60
2023-05-14T03:43:33.284Z,25.90
2023-05-14T03:45:05.934Z,22.90
2023-05-14T03:46:38.040Z,26.70
2023-05-14T03:48:09.992Z,27.90
2023-05-14T03:49:42.232Z,26.60
2023-05-14T03:51:14.926Z,24.70
2023-05-14T03:52:46.690Z,29.10
2023-05-14T03:54:18.414Z,25.90
2023-05-14T03:55:50.164Z,27.80
2023-05-14T03:57:22.046Z,27.30
2023-05-14T03:58:53.862Z,25.90
2023-05-14T04:00:25.827Z,27.10
2023-05-14T04:01:58.589Z,30.40
2023-05-14T04:03:31.120Z,28.60
2023-05-14T04:05:03.394Z,28.20
2023-05-14T04:06:35.803Z,26.00
2023-05-14T04:08:07.615Z,24.50
2023-05-14T04:09:39.537Z,26.00
2023-05-14T04:11:11.521Z,26.40
2023-05-14T04:12:43.310Z,27.80
2023-05-14T04:14:15.391Z,26.80
2023-05-14T04:15:47.988Z,24.60
2023-05-14T04:17:19.670Z,27.00
2023-05-14T04:18:53.620Z,25.50
2023-05-14T04:20:26.450Z,24.10
2023-05-14T04:21:58.533Z,25.40
2023-05-14T04:23:31.865Z,27.40
2023-05-14T04:25:03.889Z,25.90
2023-05-14T04:26:35.584Z,27.80
2023-05-14T04:28:07.310Z,29.20
2023-05-14T04:29:38.977Z,25.80
2023-05-14T04:31:10.652Z,28.30
2023-05-14T04:32:42.617Z,28.80
2023-05-14T04:34:14.533Z,24.50
2023-05-14T04:35:47.205Z,24.70
2023-05-14T04:37:18.984Z,24.70
2023-05-14T04:38:51.580Z,25.10
2023-05-14T04:40:23.445Z,26.30
2023-05-14T04:41:55.791Z,27.60
2023-05-14T04:43:27.573Z,29.40
2023-05-14T04:44:59.378Z,28.50
2023-05-14T04:46:31.315Z,26.10
2023-05-14T04:48:07.836Z,25.70
2023-05-14T04:49:39.813Z,24.70
2023-05-14T04:51:11.574Z,24.80
2023-05-14T04:52:43.453Z,23.20
2023-05-14T04:54:15.220Z,24.30
2023-05-14T04:55:47.175Z,25.10
2023-05-14T04:57:18.987Z,26.20
2023-05-14T04:58:50.717Z,26.20
2023-05-14T05:00:23.438Z,24.70
2023-05-14T05:01:55.487Z,22.50
2023-05-14T05:03:27.285Z,24.50
2023-05-14T05:04:59.109Z,24.10
2023-05-14T05:06:31.735Z,24.60
2023-05-14T05:08:03.718Z,23.70
2023-05-14T05:09:35.719Z,24.30
2023-05-14T05:11:07.797Z,23.10
2023-05-14T05:12:39.607Z,25.10
2023-05-14T05:14:11.358Z,23.60
2023-05-14T05:15:43.956Z,23.10
2023-05-14T05:17:15.802Z,25.10
2023-05-14T05:18:47.612Z,23.00
2023-05-14T05:20:19.511Z,22.60
2023-05-14T05:21:51.672Z,24.30
2023-05-14T05:23:23.506Z,21.90
2023-05-14T05:24:55.302Z,25.90
2023-05-14T05:26:27.333Z,24.20
2023-05-14T05:27:59.104Z,22.90
2023-05-14T05:29:31.005Z,21.30
2023-05-14T05:31:03.055Z,20.40
2023-05-14T05:32:35.084Z,24.30
2023-05-14T05:34:06.841Z,22.60
2023-05-14T05:35:38.682Z,22.40
2023-05-14T05:37:12.833Z,23.60
2023-05-14T05:38:44.656Z,20.40
2023-05-14T05:40:16.570Z,21.60
2023-05-14T05:41:48.327Z,20.60
2023-05-14T05:43:20.147Z,22.70
2023-05-14T05:44:51.869Z,20.90
2023-05-14T05:46:23.632Z,20.60
2023-05-14T05:47:55.863Z,19.60
2023-05-14T05:49:27.694Z,22.50
2023-05-14T05:50:59.596Z,21.60
2023-05-14T05:52:31.562Z,24.20
2023-05-14T05:54:03.608Z,19.80
2023-05-14T05:55:35.465Z,22.00
2023-05-14T05:57:07.299Z,20.50
2023-05-14T05:58:39.185Z,21.90
2023-05-14T06:00:15.277Z,20.10
2023-05-14T06:01:48.077Z,20.50
2023-05-14T06:03:19.886Z,21.30
2023-05-14T06:04:53.203Z,26.00
2023-05-14T06:06:25.071Z,21.60
2023-05-14T06:07:56.785Z,19.50
2023-05-14T06:09:28.590Z,20.60
2023-05-14T06:11:00.393Z,19.40
2023-05-14T06:12:32.575Z,20.80
2023-05-14T06:14:04.813Z,20.00
2023-05-14T06:15:36.593Z,20.50
2023-05-14T06:17:08.610Z,19.70
2023-05-14T06:18:40.307Z,19.80
2023-05-14T06:20:12.925Z,20.20
2023-05-14T06:21:44.747Z,19.50
2023-05-14T06:23:16.450Z,18.90
2023-05-14T06:24:49.107Z,20.10
2023-05-14T06:26:21.166Z,18.30
2023-05-14T06:27:52.971Z,15.60
2023-05-14T06:29:25.654Z,17.60
2023-05-14T06:30:57.496Z,16.30
2023-05-14T06:32:29.171Z,18.30
2023-05-14T06:34:00.881Z,18.90
2023-05-14T06:35:33.198Z,17.30
2023-05-14T06:37:05.552Z,17.40
2023-05-14T06:38:38.045Z,15.40
2023-05-14T06:40:10.853Z,18.60
2023-05-14T06:41:42.818Z,14.60
2023-05-14T06:43:19.036Z,17.40
2023-05-14T06:44:50.982Z,14.70
2023-05-14T06:46:23.562Z,13.60
2023-05-14T06:47:58.209Z,14.90
2023-05-14T06:49:30.108Z,13.90
2023-05-14T06:51:03.359Z,14.10
2023-05-14T06:52:35.221Z,13.20
2023-05-14T06:54:06.886Z,12.50
2023-05-14T06:55:38.644Z,13.20
2023-05-14T06:57:10.452Z,11.30
2023-05-14T06:58:42.205Z,11.70
2023-05-14T07:00:15.789Z,14.20
2023-05-14T07:01:47.603Z,13.20
2023-05-14T07:03:19.460Z,13.00
2023-05-14T07:04:51.250Z,13.70
2023-05-14T07:06:23.578Z,11.70
2023-05-14T07:07:55.785Z,11.80
2023-05-14T07:09:28.388Z,11.10
2023-05-14T07:11:00.224Z,13.40
2023-05-14T07:12:31.997Z,11.70
2023-05-14T07:14:03.801Z,10.70
2023-05-14T07:15:35.583Z,13.20
2023-05-14T07:17:07.404Z,11.90
2023-05-14T07:18:40.349Z,13.10
2023-05-14T07:20:12.971Z,12.50
2023-05-14T07:21:44.684Z,10.70
2023-05-14T07:23:17.410Z,12.30
2023-05-14T07:24:50.885Z,14.60
2023-05-14T07:26:24.673Z,12.30
2023-05-14T07:27:59.702Z,11.70
2023-05-14T07:29:31.475Z,11.80
2023-05-14T07:31:08.978Z,11.50
2023-05-14T07:32:41.050Z,11.00
2023-05-14T07:34:13.550Z,12.20
2023-05-14T07:35:45.406Z,12.20
2023-05-14T07:37:17.161Z,12.60
2023-05-14T07:38:48.997Z,12.90
2023-05-14T07:40:21.195Z,10.20
2023-05-14T07:41:54.825Z,11.40
2023-05-14T07:43:26.929Z,11.70
2023-05-14T07:44:58.761Z,10.20
2023-05-14T07:46:30.698Z,11.10
2023-05-14T07:48:02.654Z,10.20
2023-05-14T07:49:34.790Z,7.80
2023-05-14T07:51:06.605Z,11.20
2023-05-14T07:52:38.570Z,10.40
2023-05-14T07:54:11.440Z,9.10
2023-05-14T07:55:45.057Z,11.60
2023-05-14T07:57:17.384Z,8.60
2023-05-14T07:58:49.113Z,10.40
2023-05-14T08:00:21.434Z,8.60
2023-05-14T08:01:53.417Z,10.30
2023-05-14T08:03:25.602Z,8.10
2023-05-14T08:04:57.535Z,7.80
2023-05-14T08:06:29.624Z,8.00
2023-05-14T08:08:01.728Z,8.10
2023-05-14T08:09:33.523Z,7.00
2023-05-14T08:11:05.663Z,7.90
2023-05-14T08:12:37.645Z,6.70
2023-05-14T08:14:09.465Z,6.90
2023-05-14T08:15:41.273Z,6.00
2023-05-14T08:17:13.502Z,6.00
2023-05-14T08:18:45.474Z,6.10
2023-05-14T08:20:17.642Z,6.90
2023-05-14T08:21:49.441Z,6.20
2023-05-14T08:23:21.216Z,7.40
2023-05-14T08:24:53.036Z,6.50
2023-05-14T08:26:24.824Z,7.20
2023-05-14T08:27:59.682Z,5.80
2023-05-14T08:29:31.390Z,5.50
2023-05-14T08:31:03.159Z,6.90
2023-05-14T08:32:35.006Z,5.60
2023-05-14T08:34:06.877Z,6.80
2023-05-14T08:35:38.660Z,5.40
2023-05-14T08:37:10.446Z,5.90
2023-05-14T08:38:42.601Z,5.30
2023-05-14T08:40:14.466Z,5.30
2023-05-14T08:41:46.979Z,6.80
2023-05-14T08:43:26.817Z,5.20
2023-05-14T08:45:05.765Z,4.60
2023-05-14T08:46:39.468Z,5.30
2023-05-14T08:48:17.864Z,5.30
2023-05-14T08:50:04.526Z,4.60
2023-05-14T08:51:36.655Z,5.10
2023-05-14T08:53:08.451Z,4.40
2023-05-14T08:54:40.815Z,5.00
2023-05-14T08:56:14.508Z,4.00
2023-05-14T08:57:46.449Z,4.30
2023-05-14T08:59:18.153Z,3.80
2023-05-14T09:00:50.005Z,3.60
2023-05-14T09:02:29.670Z,4.00
2023-05-14T09:04:06.973Z,5.40
2023-05-14T09:05:39.550Z,4.40
2023-05-14T09:07:11.532Z,4.70
2023-05-14T09:08:43.523Z,4.90
2023-05-14T09:10:16.190Z,4.10
2023-05-14T09:11:50.360Z,4.50
2023-05-14T09:13:22.213Z,6.20
2023-05-14T09:14:54.365Z,4.70
2023-05-14T09:16:27.006Z,4.90
2023-05-14T09:17:58.910Z,4.70
2023-05-14T09:19:31.564Z,4.80
2023-05-14T09:21:03.992Z,4.20
2023-05-14T09:22:35.935Z,3.90
2023-05-14T09:24:08.245Z,2.90
2023-05-14T09:25:40.204Z,4.50
2023-05-14T09:27:21.419Z,3.80
2023-05-14T09:29:01.873Z,4.00
2023-05-14T09:30:35.000Z,4.40
2023-05-14T09:32:08.122Z,4.00
2023-05-14T09:33:39.878Z,4.60
2023-05-14T09:35:17.468Z,3.50
2023-05-14T09:36:49.679Z,3.30
2023-05-14T09:38:24.119Z,5.40
2023-05-14T09:39:55.883Z,3.80
2023-05-14T09:41:27.666Z,3.70
2023-05-14T09:43:01.824Z,4.00
2023-05-14T09:44:33.738Z,4.60
2023-05-14T09:46:05.645Z,4.90
2023-05-14T09:47:39.281Z,4.70
2023-05-14T09:49:11.301Z,6.00
2023-05-14T09:50:44.931Z,5.80
2023-05-14T09:52:19.760Z,3.80
2023-05-14T09:53:54.266Z,5.30
2023-05-14T09:55:26.129Z,4.10
2023-05-14T09:56:57.964Z,6.10
2023-05-14T09:58:29.829Z,5.40
2023-05-14T10:00:01.787Z,4.70
2023-05-14T10:01:37.960Z,5.50
2023-05-14T10:03:17.958Z,4.70
2023-05-14T10:04:54.553Z,5.70
2023-05-14T10:06:31.877Z,5.30
2023-05-14T10:08:19.864Z,6.90
2023-05-14T10:09:59.798Z,5.90
2023-05-14T10:11:36.738Z,5.50
2023-05-14T10:13:15.131Z,6.60
2023-05-14T10:14:50.342Z,5.50
2023-05-14T10:16:38.268Z,5.60
2023-05-14T10:18:16.416Z,6.20
2023-05-14T10:19:55.942Z,6.40
2023-05-14T10:21:32.219Z,5.40
2023-05-14T10:23:04.858Z,4.60
2023-05-14T10:24:39.187Z,4.90
2023-05-14T10:26:11.529Z,5.40
2023-05-14T10:27:43.988Z,5.50
2023-05-14T10:29:16.182Z,5.00
2023-05-14T10:30:49.538Z,4.20
2023-05-14T10:32:26.343Z,5.60
2023-05-14T10:33:59.789Z,4.70
2023-05-14T10:36:06.893Z,5.20
2023-05-14T10:37:38.716Z,5.40
2023-05-14T10:39:10.548Z,6.00
2023-05-14T10:40:42.803Z,4.90
2023-05-14T10:42:20.465Z,4.10
2023-05-14T10:43:52.464Z,4.90
2023-05-14T10:45:25.190Z,4.40
2023-05-14T10:46:57.106Z,4.80
2023-05-14T10:48:29.406Z,5.30
2023-05-14T10:50:05.717Z,4.20
2023-05-14T10:51:37.997Z,4.90
2023-05-14T10:53:13.929Z,4.30
2023-05-14T10:55:04.341Z,5.40
2023-05-14T10:56:37.324Z,3.80
2023-05-14T10:58:11.243Z,5.10
2023-05-14T10:59:43.377Z,5.20
2023-05-14T11:01:15.757Z,5.20
2023-05-14T11:02:47.542Z,4.30
2023-05-14T11:04:23.073Z,4.80
2023-05-14T11:05:55.706Z,3.90
2023-05-14T11:07:36.880Z,4.60
2023-05-14T11:09:09.703Z,4.30
2023-05-14T11:10:43.367Z,6.40
2023-05-14T11:12:15.259Z,4.30
2023-05-14T11:13:48.206Z,4.00
2023-05-14T11:15:22.766Z,4.30
2023-05-14T11:16:55.555Z,4.30
2023-05-14T11:18:29.005Z,4.00
2023-05-14T11:20:01.018Z,4.30
2023-05-14T11:21:33.344Z,7.50
2023-05-14T11:23:05.139Z,5.40
2023-05-14T11:24:37.094Z,4.30
2023-05-14T11:26:08.963Z,4.60
2023-05-14T11:27:44.231Z,6.00
2023-05-14T11:29:16.319Z,4.60
2023-05-14T11:30:50.295Z,6.30
2023-05-14T11:32:22.242Z,5.30
2023-05-14T11:33:54.335Z,5.00
2023-05-14T11:35:26.217Z,5.50
2023-05-14T11:36:58.004Z,5.70
2023-05-14T11:38:29.714Z,4.10
2023-05-14T11:40:02.005Z,4.30
2023-05-14T11:41:34.009Z,4.50
2023-05-14T11:43:05.958Z,4.60
2023-05-14T11:44:39.356Z,5.00
2023-05-14T11:46:18.257Z,5.10
2023-05-14T11:47:50.078Z,4.90
2023-05-14T11:49:28.875Z,6.10
2023-05-14T11:51:00.754Z,5.10
2023-05-14T11:52:40.265Z,5.00
2023-05-14T11:54:14.422Z,4.90
2023-05-14T11:55:47.643Z,5.50
2023-05-14T11:57:22.021Z,5.50
2023-05-14T11:58:58.407Z,5.30
2023-05-14T12:00:31.356Z,4.10
2023-05-14T12:02:07.803Z,3.60
2023-05-14T12:03:39.745Z,4.40
2023-05-14T12:05:13.379Z,4.60
2023-05-14T12:06:46.666Z,4.50
2023-05-14T12:08:37.897Z,4.60
2023-05-14T12:10:12.623Z,5.50
2023-05-14T12:11:46.570Z,5.90
2023-05-14T12:13:18.382Z,4.60
2023-05-14T12:14:51.004Z,6.20
2023-05-14T12:16:23.194Z,5.20
2023-05-14T12:17:55.013Z,5.70
2023-05-14T12:19:26.848Z,5.20
2023-05-14T12:21:08.387Z,3.70
2023-05-14T12:22:42.419Z,3.90
2023-05-14T12:24:18.065Z,4.50
2023-05-14T12:25:51.486Z,5.00
2023-05-14T12:27:26.319Z,4.20
2023-05-14T12:29:03.599Z,4.70
2023-05-14T12:30:38.267Z,4.30
2023-05-14T12:32:11.086Z,3.60
2023-05-14T12:33:42.931Z,5.90
2023-05-14T12:35:14.856Z,4.50
2023-05-14T12:36:46.784Z,6.40
2023-05-14T12:38:18.620Z,4.50
2023-05-14T12:39:50.685Z,5.30
2023-05-14T12:41:22.446Z,5.40
2023-05-14T12:42:56.570Z,3.90
2023-05-14T12:44:29.128Z,5.80
2023-05-14T12:46:00.938Z,4.30
2023-05-14T12:47:33.181Z,4.60
2023-05-14T12:49:06.886Z,4.90
2023-05-14T12:50:39.365Z,4.80
2023-05-14T12:53:45.776Z,4.70
2023-05-14T12:55:17.681Z,6.00
2023-05-14T12:56:49.629Z,4.50
2023-05-14T12:58:21.478Z,4.80
2023-05-14T12:59:53.437Z,4.20
2023-05-14T13:01:25.180Z,5.20
2023-05-14T13:02:57.031Z,4.40
2023-05-14T13:04:29.088Z,4.20
2023-05-14T13:06:01.467Z,3.60
2023-05-14T13:07:33.513Z,3.20
2023-05-14T13:09:08.814Z,4.70
2023-05-14T13:10:41.022Z,4.10
2023-05-14T13:12:12.842Z,4.00
2023-05-14T13:13:44.602Z,3.40
2023-05-14T13:15:16.448Z,3.10
2023-05-14T13:16:48.245Z,3.90
2023-05-14T13:18:20.199Z,4.50
2023-05-14T13:19:52.014Z,3.20
2023-05-14T13:21:23.850Z,3.30
2023-05-14T13:22:55.607Z,3.70
2023-05-14T13:24:27.536Z,3.30
2023-05-14T13:25:59.551Z,4.90
2023-05-14T13:27:31.844Z,3.40
2023-05-14T13:29:04.500Z,3.80
2023-05-14T13:30:36.394Z,3.10
2023-05-14T13:32:08.472Z,3.90
2023-05-14T13:33:45.065Z,4.30
2023-05-14T13:35:17.140Z,3.90
2023-05-14T13:36:49.926Z,3.60
2023-05-14T13:38:21.745Z,3.40
2023-05-14T13:39:53.573Z,3.60
2023-05-14T13:41:26.969Z,3.50
2023-05-14T13:42:58.647Z,4.10
2023-05-14T13:44:30.478Z,3.00
2023-05-14T13:46:06.000Z,4.50
2023-05-14T13:47:38.550Z,3.00
2023-05-14T13:49:11.884Z,4.30
2023-05-14T13:50:43.661Z,5.00
2023-05-14T13:52:15.384Z,3.90
2023-05-14T13:53:47.046Z,3.50
2023-05-14T13:55:18.869Z,4.10
2023-05-14T13:56:51.064Z,3.40
2023-05-14T13:58:27.062Z,3.40
2023-05-14T13:59:59.169Z,3.70
2023-05-14T14:01:31.742Z,3.50
2023-05-14T14:03:03.829Z,4.00
2023-05-14T14:04:35.615Z,4.40
2023-05-14T14:06:07.496Z,3.50
2023-05-14T14:07:40.706Z,4.30
2023-05-14T14:09:13.770Z,3.20
2023-05-14T14:10:45.983Z,3.70
2023-05-14T14:12:18.048Z,4.30
2023-05-14T14:13:49.862Z,5.00
2023-05-14T14:15:22.129Z,3.60
2023-05-14T14:16:54.109Z,3.70
2023-05-14T14:18:27.156Z,6.40
2023-05-14T14:19:59.061Z,3.90
2023-05-14T14:21:31.735Z,3.60
2023-05-14T14:23:03.762Z,5.80
2023-05-14T14:24:35.509Z,8.70
2023-05-14T14:26:07.305Z,4.60
2023-05-14T14:27:41.033Z,4.60
2023-05-14T14:29:12.739Z,5.50
2023-05-14T14:30:44.942Z,3.70
2023-05-14T14:32:16.697Z,6.30
2023-05-14T14:33:48.566Z,4.10
2023-05-14T14:35:20.742Z,3.80
2023-05-14T14:36:52.497Z,4.20
2023-05-14T14:38:24.852Z,3.60
2023-05-14T14:39:56.586Z,4.50
2023-05-14T14:41:28.370Z,4.30
2023-05-14T14:43:00.484Z,4.80
2023-05-14T14:44:32.263Z,3.70
2023-05-14T14:46:04.221Z,4.30
2023-05-14T14:47:36.499Z,5.50
2023-05-14T14:49:08.899Z,4.30
2023-05-14T14:50:40.761Z,4.70
2023-05-14T14:52:12.609Z,4.10
2023-05-14T14:53:44.353Z,5.80
2023-05-14T14:55:16.025Z,3.80
2023-05-14T14:56:49.351Z,4.30
2023-05-14T14:58:21.733Z,4.40
2023-05-14T14:59:53.604Z,9.40
2023-05-14T15:01:25.626Z,4.60
2023-05-14T15:02:57.985Z,4.80
2023-05-14T15:04:32.965Z,5.90
2023-05-14T15:06:04.841Z,5.30
2023-05-14T15:07:36.554Z,4.60
2023-05-14T15:09:09.131Z,5.20
2023-05-14T15:10:41.713Z,5.20
2023-05-14T15:12:14.240Z,4.80
2023-05-14T15:13:46.115Z,4.50
2023-05-14T15:15:17.984Z,4.30
2023-05-14T15:16:51.014Z,3.80
2023-05-14T15:18:23.152Z,4.10
2023-05-14T15:19:54.862Z,4.30
2023-05-14T15:21:26.750Z,4.90
2023-05-14T15:22:58.831Z,4.90
2023-05-14T15:24:30.572Z,4.20
2023-05-14T15:26:02.289Z,5.90
2023-05-14T15:27:34.012Z,4.20
2023-05-14T15:29:05.696Z,4.30
2023-05-14T15:30:37.574Z,4.70
2023-05-14T15:32:09.491Z,4.80
2023-05-14T15:33:41.754Z,5.10
2023-05-14T15:35:14.100Z,5.10
2023-05-14T15:36:46.027Z,4.30
2023-05-14T15:38:17.836Z,5.20
2023-05-14T15:39:49.532Z,4.80
2023-05-14T15:41:21.198Z,4.20
2023-05-14T15:42:53.071Z,5.50
2023-05-14T15:44:24.870Z,4.70
2023-05-14T15:45:56.697Z,4.40
2023-05-14T15:47:28.492Z,3.90
2023-05-14T15:49:00.497Z,5.40
2023-05-14T15:50:32.318Z,4.30
2023-05-14T15:52:04.540Z,4.50
2023-05-14T15:53:36.307Z,3.90
2023-05-14T15:55:08.963Z,4.50
2023-05-14T15:56:41.012Z,4.60
2023-05-14T15:58:12.927Z,4.30
2023-05-14T15:59:44.786Z,4.90
2023-05-14T16:01:16.975Z,4.70
2023-05-14T16:02:48.811Z,4.70
2023-05-14T16:04:20.681Z,4.70
2023-05-14T16:05:52.475Z,4.70
2023-05-14T16:07:24.393Z,4.40
2023-05-14T16:08:56.861Z,5.10
2023-05-14T16:10:28.620Z,5.30
2023-05-14T16:12:00.508Z,4.90
2023-05-14T16:13:32.502Z,5.40
2023-05-14T16:15:05.370Z,4.70
2023-05-14T16:16:37.275Z,4.60
2023-05-14T16:18:09.098Z,5.40
2023-05-14T16:19:41.224Z,5.40
2023-05-14T16:21:12.951Z,4.50
2023-05-14T16:22:45.080Z,4.50
2023-05-14T16:24:20.084Z,5.10
2023-05-14T16:25:51.857Z,4.60
2023-05-14T16:27:23.650Z,7.80
2023-05-14T16:28:55.564Z,4.90
2023-05-14T16:30:27.243Z,5.40
2023-05-14T16:31:58.982Z,5.40
2023-05-14T16:33:30.834Z,4.30
2023-05-14T16:35:02.850Z,5.50
2023-05-14T16:36:34.771Z,6.00
2023-05-14T16:38:06.581Z,6.70
2023-05-14T16:39:38.260Z,6.90
2023-05-14T16:41:10.593Z,6.50
2023-05-14T16:42:42.575Z,5.20
2023-05-14T16:44:14.389Z,5.50
2023-05-14T16:45:46.182Z,5.10
2023-05-14T16:47:17.942Z,5.30
2023-05-14T16:48:50.669Z,5.40
2023-05-14T16:50:22.463Z,5.00
2023-05-14T16:51:54.462Z,3.80
2023-05-14T16:53:26.619Z,4.80
2023-05-14T16:54:58.327Z,5.50
2023-05-14T16:56:32.341Z,4.40
2023-05-14T16:58:04.062Z,5.00
2023-05-14T16:59:36.181Z,5.70
2023-05-14T17:01:09.886Z,5.40
2023-05-14T17:02:41.971Z,6.00
2023-05-14T17:04:13.984Z,3.90
2023-05-14T17:05:46.233Z,4.10
2023-05-14T17:07:18.124Z,10.00
2023-05-14T17:08:49.825Z,4.80
2023-05-14T17:10:21.621Z,5.20
2023-05-14T17:11:53.407Z,4.40
2023-05-14T17:13:25.660Z,4.60
2023-05-14T17:14:57.521Z,4.30
2023-05-14T17:16:29.487Z,4.60
2023-05-14T17:18:01.425Z,4.80
2023-05-14T17:19:33.256Z,5.30
2023-05-14T17:21:05.942Z,4.90
2023-05-14T17:22:38.009Z,6.80
2023-05-14T17:24:09.881Z,5.00
2023-05-14T17:25:41.654Z,3.90
2023-05-14T17:27:14.750Z,5.10
2023-05-14T17:28:47.649Z,5.40
2023-05-14T17:30:19.394Z,5.40
2023-05-14T17:31:51.259Z,5.20
2023-05-14T17:33:23.121Z,5.20
2023-05-14T17:34:59.220Z,5.50
2023-05-14T17:36:32.356Z,4.60
2023-05-14T17:38:04.567Z,4.20
2023-05-14T17:39:36.397Z,4.20
2023-05-14T17:41:08.167Z,3.90
2023-05-14T17:42:39.970Z,4.60
2023-05-14T17:44:13.167Z,4.70
2023-05-14T17:45:54.041Z,6.20
2023-05-14T17:47:26.932Z,5.00
2023-05-14T17:48:58.798Z,4.20
2023-05-14T17:50:30.665Z,5.30
2023-05-14T17:52:02.702Z,4.80
2023-05-14T17:53:34.744Z,4.70
2023-05-14T17:55:07.415Z,6.70
2023-05-14T17:56:39.546Z,4.20
2023-05-14T17:58:13.674Z,4.50
2023-05-14T17:59:45.408Z,5.60
2023-05-14T18:01:17.207Z,5.20
2023-05-14T18:02:49.045Z,5.30
2023-05-14T18:04:20.953Z,5.10
2023-05-14T18:05:52.918Z,5.70
2023-05-14T18:07:24.792Z,5.90
2023-05-14T18:08:56.732Z,4.80
2023-05-14T18:10:29.653Z,6.10
2023-05-14T18:12:01.465Z,4.50
2023-05-14T18:13:33.297Z,5.30
2023-05-14T18:15:06.018Z,6.20
2023-05-14T18:16:37.913Z,5.00
2023-05-14T18:18:09.735Z,5.10
2023-05-14T18:19:41.540Z,5.10
2023-05-14T18:21:13.244Z,5.20
2023-05-14T18:22:45.081Z,5.50
2023-05-14T18:24:16.793Z,4.60
2023-05-14T18:25:48.545Z,4.80
2023-05-14T18:27:20.280Z,4.70
2023-05-14T18:28:52.373Z,5.60
2023-05-14T18:30:24.159Z,4.90
2023-05-14T18:31:56.698Z,5.70
2023-05-14T18:33:28.404Z,5.70
2023-05-14T18:35:00.381Z,6.00
2023-05-14T18:36:32.823Z,6.70
2023-05-14T18:38:04.716Z,5.20
2023-05-14T18:39:36.421Z,5.20
2023-05-14T18:41:08.167Z,5.60
2023-05-14T18:42:41.191Z,5.00
2023-05-14T18:44:13.498Z,5.90
2023-05-14T18:45:47.457Z,7.10
2023-05-14T18:47:19.286Z,5.00
2023-05-14T18:48:51.103Z,4.00
2023-05-14T18:50:22.874Z,3.00
2023-05-14T18:51:54.774Z,4.30
2023-05-14T18:53:27.288Z,4.00
2023-05-14T18:54:59.009Z,4.10
2023-05-14T18:56:30.917Z,4.20
2023-05-14T18:58:02.945Z,3.80
2023-05-14T18:59:34.736Z,4.70
2023-05-14T19:01:06.607Z,5.40
2023-05-14T19:02:38.464Z,5.10
2023-05-14T19:04:10.321Z,5.10
2023-05-14T19:05:42.183Z,4.10
2023-05-14T19:07:15.163Z,3.50
2023-05-14T19:08:47.001Z,4.10
2023-05-14T19:10:18.820Z,4.30
2023-05-14T19:11:50.730Z,5.10
2023-05-14T19:13:22.448Z,4.90
2023-05-14T19:14:54.156Z,4.00
2023-05-14T19:16:26.670Z,4.30
2023-05-14T19:17:58.593Z,5.30
2023-05-14T19:19:30.749Z,4.60
2023-05-14T19:21:02.822Z,4.80
2023-05-14T19:22:34.569Z,4.30
2023-05-14T19:24:06.554Z,4.80
2023-05-14T19:25:38.362Z,4.30
2023-05-14T19:27:10.359Z,4.50
2023-05-14T19:28:42.172Z,5.10
2023-05-14T19:30:14.169Z,5.30
2023-05-14T19:31:46.007Z,4.10
2023-05-14T19:33:17.888Z,4.90
2023-05-14T19:34:50.879Z,5.20
2023-05-14T19:36:23.391Z,5.20
2023-05-14T19:37:55.312Z,3.90
2023-05-14T19:39:27.303Z,4.90
2023-05-14T19:40:59.760Z,6.00
2023-05-14T19:42:31.786Z,4.80
2023-05-14T19:44:03.735Z,4.90
2023-05-14T19:45:39.188Z,5.30
2023-05-14T19:47:11.153Z,5.80
2023-05-14T19:48:42.852Z,5.30
2023-05-14T19:50:15.774Z,5.70
2023-05-14T19:51:47.539Z,6.80
2023-05-14T19:53:19.287Z,5.00
2023-05-14T19:54:51.107Z,5.40
2023-05-14T19:56:24.250Z,5.10
2023-05-14T19:57:57.929Z,4.80
2023-05-14T19:59:29.995Z,5.30
2023-05-14T20:01:01.737Z,5.60
2023-05-14T20:02:34.298Z,5.60
2023-05-14T20:04:07.447Z,5.30
2023-05-14T20:05:39.235Z,7.70
2023-05-14T20:07:12.033Z,4.70
2023-05-14T20:08:45.204Z,5.60
2023-05-14T20:10:17.010Z,6.00
2023-05-14T20:11:48.756Z,5.40
2023-05-14T20:13:23.021Z,5.70
2023-05-14T20:14:56.115Z,6.50
2023-05-14T20:16:28.456Z,5.50
2023-05-14T20:18:01.111Z,5.60
2023-05-14T20:19:33.044Z,5.80
2023-05-14T20:21:05.529Z,5.40
2023-05-14T20:22:38.392Z,4.80
2023-05-14T20:24:10.124Z,5.40
2023-05-14T20:25:43.016Z,6.00
2023-05-14T20:27:14.715Z,6.20
2023-05-14T20:28:46.608Z,6.10
2023-05-14T20:30:19.297Z,6.30
2023-05-14T20:31:51.160Z,7.10
2023-05-14T20:33:23.250Z,9.20
2023-05-14T20:34:54.986Z,6.80